ADDS TAF Board (Experimental) INFO

IDs: Format: Expanded Condensed

Updated at: 0759 UTC 22 Oct 2014

KATL - Atlanta/Hartsfield-J, GA, US

Issued at 0744 UTC 22 Oct 2014
Time0752Z22/08Z22/09Z22/10Z22/11Z22/12Z22/13Z22/14Z22/15Z22/16Z22/17Z22/18Z22/19Z22/20Z
TypeOBSPRVLPRVLPRVLPRVLPRVLPRVLPRVLPRVLPRVLPRVLPRVLPRVLPRVL
VIS10>6>6>6>6>6>6>6>6>6>6>6>6>6
CIG----------------------------
CoverCLRSKCSKCSKCSKCSKCSKCSKCSKCSKCSKCSKCSKCSKC
FltCat--VFRVFRVFRVFRVFRVFRVFRVFRVFRVFRVFRVFRVFR
WX----------------------------
WDir310330330330330330330330330330330330330330
WSpd57777777777777
WGst----------------------------
R08/26
XWnd36666666666666
HWnd-4-4-4-4-4-4-4-4-4-4-4-4-4-4
R09/27
XWnd36666666666666
HWnd-4-4-4-4-4-4-4-4-4-4-4-4-4-4
R10/28
XWnd36666666666666
HWnd-4-4-4-4-4-4-4-4-4-4-4-4-4-4
Raw TAF
KATL 220744Z 2208/2312 33007KT P6SM SKC
  FM230100 35003KT P6SM SKC


Raw METAR
KATL 220752Z 31005KT 10SM CLR 11/07 A3003 RMK AO2 SLP166 T01060072
KATL 220652Z 25004KT 10SM CLR 12/08 A3003 RMK AO2 SLP164 T01170078

TAF Board Legend

Hazard VFR MVFR IFR LIFR
Visibility (sm) >5 3≤X≤5 1≤X<3 <1
Ceiling (100 ft) >30 10≤X≤30 5≤X<10 <5
Wind Speed (kt) <10 10≤X<20 20≤X<30 ≥30
Wind Gust (kt) <15 15≤X<25 25≤X<35 ≥35
Weather No Wx Reported VCTS,-TS,-FZRA TS,FZRA +TS,+FZRA


Page loaded:  07:59 UTC  |   12:59 AM Pacific  |   01:59 AM Mountain  |   02:59 AM Central  |   03:59 AM Eastern

 

ADVISORIES

FORECASTS

FORECASTS

OBSERVATIONS

USER TOOLS

ABOUT US